Porto Rico, Brazil
Current Conditions -  °F | °C
As of 11:00 PM on Sunday 21 Dec 2014 (Local Time) from SBMG Reporting Station
Thunderstorm Thunderstorm  
Wind Chill: 75°   Ceiling: 4500
Heat Index: 75°   Visibility: 6mi
Dew Point: 73°   Wind: 16mph
Humidity: 94%   Direction: 350°N
Pressure: NA   Gusts: NA
Location:  22.77°S, 53.25°W
Report Text: SBMG 220100Z 35014KT 9999 VCTS FEW020 BKN045 FEW060CB 24/23 Q1008
Loading
Personal Weather Stations






























Interactive Weather Map New forecast layout! Learn more

10-Day Weather Forecast

Advertisements
Track Severe Weather on mobile